createdAt,value
2023-02-01T00:00:34.363Z,133.50
2023-02-01T00:03:02.411Z,136.10
2023-02-01T00:05:29.354Z,122.85
2023-02-01T00:07:56.286Z,119.75
2023-02-01T00:10:23.501Z,127.18
2023-02-01T00:12:50.552Z,128.88
2023-02-01T00:15:17.527Z,129.13
2023-02-01T00:17:44.455Z,128.32
2023-02-01T00:20:11.870Z,126.82
2023-02-01T00:22:38.741Z,133.52
2023-02-01T00:25:06.103Z,135.15
2023-02-01T00:27:32.983Z,131.40
2023-02-01T00:29:59.866Z,128.95
2023-02-01T00:32:26.689Z,132.63
2023-02-01T00:34:53.536Z,125.30
2023-02-01T00:37:20.412Z,132.48
2023-02-01T00:39:48.507Z,135.45
2023-02-01T00:42:15.359Z,117.50
2023-02-01T00:44:42.180Z,126.38
2023-02-01T00:47:09.221Z,121.30
2023-02-01T00:49:36.063Z,120.03
2023-02-01T00:52:02.945Z,134.43
2023-02-01T00:54:29.968Z,117.43
2023-02-01T00:56:56.840Z,136.45
2023-02-01T00:59:23.681Z,122.45
2023-02-01T01:01:50.671Z,121.82
2023-02-01T01:04:17.964Z,118.78
2023-02-01T01:06:44.973Z,119.00
2023-02-01T01:09:11.935Z,129.98
2023-02-01T01:11:39.889Z,121.85
2023-02-01T01:14:08.969Z,128.45
2023-02-01T01:16:36.743Z,126.40
2023-02-01T01:19:04.134Z,123.63
2023-02-01T01:21:31.611Z,119.22
2023-02-01T01:23:58.654Z,121.93
2023-02-01T01:26:28.791Z,127.70
2023-02-01T01:28:57.515Z,123.35
2023-02-01T01:31:24.656Z,128.07
2023-02-01T01:33:53.407Z,120.80
2023-02-01T01:36:21.508Z,132.25
2023-02-01T01:38:48.501Z,132.20
2023-02-01T01:41:20.767Z,132.38
2023-02-01T01:43:50.763Z,123.35
2023-02-01T01:46:21.182Z,129.88
2023-02-01T01:48:55.059Z,121.55
2023-02-01T01:51:25.813Z,121.40
2023-02-01T01:54:18.382Z,132.57
2023-02-01T01:56:50.288Z,138.35
2023-02-01T01:59:17.828Z,118.90
2023-02-01T02:01:45.265Z,124.82
2023-02-01T02:04:12.309Z,120.13
2023-02-01T02:06:58.983Z,130.38
2023-02-01T02:14:23.198Z,116.60
2023-02-01T02:17:14.865Z,114.18
2023-02-01T02:20:28.955Z,110.60
2023-02-01T02:23:13.700Z,122.55
2023-02-01T02:25:43.300Z,116.63
2023-02-01T02:28:51.737Z,125.68
2023-02-01T02:31:34.952Z,110.30
2023-02-01T02:34:07.847Z,127.50
2023-02-01T02:36:37.540Z,123.93
2023-02-01T02:39:07.944Z,120.57
2023-02-01T02:42:07.631Z,129.35
2023-02-01T02:44:56.461Z,112.05
2023-02-01T02:47:42.041Z,113.85
2023-02-01T02:50:47.379Z,118.60
2023-02-01T02:53:37.697Z,119.75
2023-02-01T02:56:27.019Z,128.18
2023-02-01T02:59:14.096Z,115.45
2023-02-01T03:02:00.871Z,116.05
2023-02-01T03:06:55.406Z,117.32
2023-02-01T03:09:35.053Z,123.07
2023-02-01T03:12:28.475Z,124.65
2023-02-01T03:15:01.242Z,129.93
2023-02-01T03:17:33.926Z,124.75
2023-02-01T03:20:04.829Z,114.63
2023-02-01T03:22:35.269Z,124.65
2023-02-01T03:25:16.686Z,132.55
2023-02-01T03:27:47.181Z,119.88
2023-02-01T03:30:35.779Z,118.00
2023-02-01T03:33:08.467Z,119.45
2023-02-01T03:35:48.528Z,117.72
2023-02-01T03:38:34.439Z,128.60
2023-02-01T03:43:59.760Z,118.63
2023-02-01T03:46:35.599Z,123.45
2023-02-01T03:49:08.128Z,117.20
2023-02-01T03:51:39.874Z,125.97
2023-02-01T03:54:10.773Z,119.55
2023-02-01T03:56:40.664Z,125.15
2023-02-01T03:59:08.289Z,117.90
2023-02-01T04:01:36.610Z,121.78
2023-02-01T04:04:03.709Z,114.60
2023-02-01T04:06:30.911Z,129.80
2023-02-01T04:09:03.858Z,115.22
2023-02-01T04:11:30.758Z,125.03
2023-02-01T04:13:57.735Z,110.43
2023-02-01T04:16:24.619Z,126.25
2023-02-01T04:21:18.159Z,117.47
2023-02-01T04:23:45.203Z,123.47
2023-02-01T04:26:12.100Z,119.65
2023-02-01T04:28:38.974Z,119.50
2023-02-01T04:31:05.876Z,122.43
2023-02-01T04:33:32.984Z,125.43
2023-02-01T04:36:00.238Z,130.32
2023-02-01T04:38:28.051Z,116.30
2023-02-01T04:40:54.927Z,118.20
2023-02-01T04:43:21.848Z,118.97
2023-02-01T04:45:52.337Z,126.93
2023-02-01T04:48:20.828Z,121.80
2023-02-01T04:50:49.693Z,136.57
2023-02-01T04:53:17.211Z,121.50
2023-02-01T04:55:44.705Z,127.38
2023-02-01T04:58:12.081Z,118.65
2023-02-01T05:00:39.026Z,121.25
2023-02-01T05:03:06.487Z,125.65
2023-02-01T05:05:33.649Z,122.20
2023-02-01T05:08:00.565Z,119.38
2023-02-01T05:10:27.452Z,128.73
2023-02-01T05:13:12.993Z,131.23
2023-02-01T05:15:40.016Z,125.13
2023-02-01T05:18:07.025Z,124.40
2023-02-01T05:20:33.858Z,129.40
2023-02-01T05:23:00.768Z,125.22
2023-02-01T05:25:27.622Z,122.75
2023-02-01T05:27:55.038Z,123.55
2023-02-01T05:30:22.331Z,120.07
2023-02-01T05:32:53.420Z,124.47
2023-02-01T05:35:21.313Z,134.07
2023-02-01T05:37:48.372Z,123.03
2023-02-01T05:40:15.366Z,132.90
2023-02-01T05:42:42.234Z,131.45
2023-02-01T05:45:09.690Z,131.32
2023-02-01T05:47:36.588Z,120.20
2023-02-01T05:50:05.141Z,126.97
2023-02-01T05:52:32.228Z,130.55
2023-02-01T05:54:59.122Z,131.73
2023-02-01T05:57:25.975Z,122.32
2023-02-01T05:59:52.844Z,130.27
2023-02-01T06:02:19.885Z,132.40
2023-02-01T06:04:46.826Z,139.05
2023-02-01T06:07:14.041Z,121.25
2023-02-01T06:09:40.913Z,126.30
2023-02-01T06:12:07.855Z,134.68
2023-02-01T06:14:34.870Z,122.25
2023-02-01T06:17:01.968Z,128.65
2023-02-01T06:19:28.913Z,123.15
2023-02-01T06:21:55.708Z,120.22
2023-02-01T06:24:22.553Z,122.03
2023-02-01T06:26:51.705Z,125.78
2023-02-01T06:29:18.558Z,114.70
2023-02-01T06:31:45.458Z,118.20
2023-02-01T06:34:12.464Z,109.63
2023-02-01T06:36:39.679Z,118.53
2023-02-01T06:39:06.558Z,122.07
2023-02-01T06:41:35.742Z,117.07
2023-02-01T06:44:02.896Z,120.82
2023-02-01T06:46:29.817Z,114.25
2023-02-01T06:48:57.027Z,126.80
2023-02-01T06:51:29.091Z,132.15
2023-02-01T06:53:56.690Z,116.03
2023-02-01T06:56:23.900Z,125.90
2023-02-01T06:58:50.987Z,122.22
2023-02-01T07:01:17.882Z,127.40
2023-02-01T07:03:49.180Z,120.45
2023-02-01T07:06:16.075Z,125.30
2023-02-01T07:08:42.926Z,116.80
2023-02-01T07:11:12.393Z,117.65
2023-02-01T07:13:39.957Z,118.70
2023-02-01T07:16:13.982Z,118.97
2023-02-01T07:18:41.221Z,118.85
2023-02-01T07:21:08.573Z,118.90
2023-02-01T07:23:35.888Z,123.80
2023-02-01T07:26:05.840Z,122.90
2023-02-01T07:28:34.792Z,136.80
2023-02-01T07:31:10.650Z,119.32
2023-02-01T07:33:37.653Z,139.27
2023-02-01T07:36:07.124Z,122.38
2023-02-01T07:38:34.383Z,136.85
2023-02-01T07:41:03.000Z,136.45
2023-02-01T07:43:30.531Z,119.80
2023-02-01T07:45:57.847Z,128.20
2023-02-01T07:48:26.315Z,139.23
2023-02-01T07:51:05.318Z,139.60
2023-02-01T07:53:34.550Z,139.10
2023-02-01T07:56:02.199Z,129.10
2023-02-01T07:58:29.453Z,128.93
2023-02-01T08:01:15.553Z,143.00
2023-02-01T08:03:42.652Z,132.45
2023-02-01T08:06:09.564Z,131.75
2023-02-01T08:08:36.678Z,141.25
2023-02-01T08:11:05.781Z,142.45
2023-02-01T08:13:34.095Z,150.10
2023-02-01T08:16:02.356Z,156.93
2023-02-01T08:18:29.320Z,146.43
2023-02-01T08:20:56.506Z,144.32
2023-02-01T08:23:24.449Z,143.75
2023-02-01T08:25:51.274Z,154.73
2023-02-01T08:28:18.328Z,146.20
2023-02-01T08:30:45.277Z,157.05
2023-02-01T08:33:12.912Z,149.48
2023-02-01T08:35:43.746Z,146.55
2023-02-01T08:38:11.582Z,154.85
2023-02-01T08:40:38.436Z,153.88
2023-02-01T08:43:05.331Z,150.98
2023-02-01T08:45:32.222Z,144.98
2023-02-01T08:47:59.141Z,149.93
2023-02-01T08:50:26.544Z,143.30
2023-02-01T08:52:54.469Z,144.95
2023-02-01T08:55:21.873Z,147.77
2023-02-01T08:57:49.351Z,151.15
2023-02-01T09:00:17.994Z,142.70
2023-02-01T09:02:45.712Z,152.55
2023-02-01T09:05:13.143Z,143.00
2023-02-01T09:07:40.119Z,140.57
2023-02-01T09:10:07.805Z,142.40
2023-02-01T09:12:35.591Z,139.80
2023-02-01T09:15:02.816Z,156.10
2023-02-01T09:17:30.777Z,154.18
2023-02-01T09:19:57.955Z,155.57
2023-02-01T09:22:25.074Z,150.40
2023-02-01T09:24:55.150Z,148.05
2023-02-01T09:27:22.489Z,148.20
2023-02-01T09:29:53.707Z,152.65
2023-02-01T09:32:23.328Z,159.38
2023-02-01T09:34:51.187Z,150.13
2023-02-01T09:37:18.443Z,151.70
2023-02-01T09:39:45.442Z,162.65
2023-02-01T09:42:33.513Z,155.80
2023-02-01T09:45:29.948Z,168.10
2023-02-01T09:48:03.132Z,160.27
2023-02-01T09:50:38.482Z,155.57
2023-02-01T09:53:22.925Z,162.17
2023-02-01T09:55:52.153Z,167.90
2023-02-01T09:58:23.939Z,160.13
2023-02-01T10:01:02.252Z,165.70
2023-02-01T10:03:35.820Z,162.40
2023-02-01T10:06:31.789Z,167.38
2023-02-01T10:09:13.812Z,160.95
2023-02-01T10:11:51.840Z,167.20
2023-02-01T10:14:39.258Z,169.18
2023-02-01T10:17:31.001Z,173.05
2023-02-01T10:20:13.167Z,165.60
2023-02-01T10:23:19.463Z,168.35
2023-02-01T10:25:55.013Z,169.52
2023-02-01T10:28:25.201Z,170.07
2023-02-01T10:30:58.107Z,164.80
2023-02-01T10:33:28.830Z,168.55
2023-02-01T10:36:18.229Z,155.23
2023-02-01T10:38:45.442Z,157.30
2023-02-01T10:41:18.880Z,158.55
2023-02-01T10:43:49.543Z,157.82
2023-02-01T10:46:17.911Z,164.35
2023-02-01T10:48:45.024Z,168.48
2023-02-01T10:51:15.013Z,162.48
2023-02-01T10:54:00.007Z,167.43
2023-02-01T10:56:29.352Z,164.20
2023-02-01T10:59:07.905Z,157.20
2023-02-01T11:01:46.332Z,155.30
2023-02-01T11:04:19.942Z,158.77
2023-02-01T11:07:18.410Z,153.25
2023-02-01T11:09:52.357Z,162.40
2023-02-01T11:12:30.648Z,154.43
2023-02-01T11:15:13.523Z,160.98
2023-02-01T11:17:45.625Z,156.88
2023-02-01T11:20:22.405Z,158.20
2023-02-01T11:22:58.526Z,160.70
2023-02-01T11:25:26.997Z,156.60
2023-02-01T11:27:56.758Z,154.23
2023-02-01T11:30:41.425Z,152.23
2023-02-01T11:33:15.030Z,162.02
2023-02-01T11:35:43.930Z,153.80
2023-02-01T11:38:31.655Z,150.80
2023-02-01T11:41:16.209Z,150.18
2023-02-01T11:44:01.168Z,163.68
2023-02-01T11:46:34.074Z,163.80
2023-02-01T11:49:26.359Z,155.02
2023-02-01T11:52:10.748Z,150.63
2023-02-01T11:54:56.793Z,168.52
2023-02-01T11:58:01.420Z,155.02
2023-02-01T12:00:47.050Z,155.13
2023-02-01T12:03:41.833Z,165.05
2023-02-01T12:06:18.011Z,158.30
2023-02-01T12:09:06.846Z,164.15
2023-02-01T12:11:55.502Z,165.98
2023-02-01T12:14:22.300Z,157.60
2023-02-01T12:16:59.483Z,167.85
2023-02-01T12:19:33.660Z,167.20
2023-02-01T12:22:15.092Z,160.05
2023-02-01T12:25:07.224Z,157.48
2023-02-01T12:27:44.287Z,167.35
2023-02-01T12:30:23.615Z,167.57
2023-02-01T12:32:56.741Z,160.98
2023-02-01T12:35:40.129Z,171.57
2023-02-01T12:38:16.017Z,159.07
2023-02-01T12:40:51.925Z,170.00
2023-02-01T12:43:26.517Z,164.63
2023-02-01T12:45:59.360Z,162.88
2023-02-01T12:48:52.585Z,169.23
2023-02-01T12:51:28.543Z,162.73
2023-02-01T12:54:01.853Z,169.63
2023-02-01T12:56:39.879Z,160.15
2023-02-01T12:59:19.227Z,173.25
2023-02-01T13:02:07.334Z,163.65
2023-02-01T13:05:12.876Z,157.20
2023-02-01T13:08:02.093Z,164.55
2023-02-01T13:10:29.101Z,157.50
2023-02-01T13:13:17.905Z,157.93
2023-02-01T13:15:56.113Z,156.07
2023-02-01T13:18:27.563Z,169.23
2023-02-01T13:21:05.519Z,167.05
2023-02-01T13:23:36.563Z,160.27
2023-02-01T13:26:03.527Z,160.18
2023-02-01T13:28:45.608Z,160.55
2023-02-01T13:31:40.837Z,154.77
2023-02-01T13:34:38.285Z,168.13
2023-02-01T13:40:28.209Z,154.55
2023-02-01T13:42:58.821Z,157.75
2023-02-01T13:45:30.454Z,167.85
2023-02-01T13:48:01.073Z,164.00
2023-02-01T13:50:36.381Z,165.63
2023-02-01T13:53:12.765Z,161.73
2023-02-01T13:58:19.043Z,151.13
2023-02-01T14:00:46.070Z,161.35
2023-02-01T14:03:17.229Z,159.60
2023-02-01T14:05:48.084Z,156.43
2023-02-01T14:08:39.271Z,157.10
2023-02-01T14:11:06.543Z,165.48
2023-02-01T14:13:36.905Z,157.75
2023-02-01T14:16:04.005Z,154.45
2023-02-01T14:18:42.255Z,162.05
2023-02-01T14:21:33.145Z,157.38
2023-02-01T14:24:09.146Z,151.32
2023-02-01T14:26:36.104Z,155.20
2023-02-01T14:29:20.362Z,150.82
2023-02-01T14:32:07.201Z,150.32
2023-02-01T14:34:44.264Z,159.00
2023-02-01T14:37:26.161Z,156.93
2023-02-01T14:39:58.210Z,153.00
2023-02-01T14:42:43.045Z,167.65
2023-02-01T14:45:33.155Z,159.15
2023-02-01T14:48:08.909Z,149.35
2023-02-01T14:50:41.955Z,164.88
2023-02-01T14:53:12.656Z,152.30
2023-02-01T14:56:02.952Z,150.82
2023-02-01T14:58:35.817Z,154.05
2023-02-01T15:01:06.151Z,155.55
2023-02-01T15:03:41.277Z,149.48
2023-02-01T15:06:42.257Z,160.93
2023-02-01T15:09:22.417Z,144.77
2023-02-01T15:12:00.682Z,159.10
2023-02-01T15:14:29.746Z,157.15
2023-02-01T15:16:56.906Z,151.82
2023-02-01T15:19:28.586Z,150.23
2023-02-01T15:21:57.395Z,145.75
2023-02-01T15:24:30.720Z,141.63
2023-02-01T15:27:04.934Z,154.80
2023-02-01T15:29:34.534Z,147.48
2023-02-01T15:32:02.122Z,154.95
2023-02-01T15:34:50.405Z,152.85
2023-02-01T15:37:19.661Z,154.30
2023-02-01T15:40:11.674Z,148.10
2023-02-01T15:42:59.013Z,148.32
2023-02-01T15:45:33.133Z,148.15
2023-02-01T15:48:01.160Z,143.73
2023-02-01T15:50:31.631Z,157.35
2023-02-01T15:52:58.667Z,148.00
2023-02-01T15:55:28.500Z,156.55
2023-02-01T15:57:55.425Z,143.27
2023-02-01T16:00:36.538Z,146.25
2023-02-01T16:03:22.963Z,154.07
2023-02-01T16:05:59.761Z,147.85
2023-02-01T16:08:29.311Z,145.88
2023-02-01T16:11:03.300Z,146.38
2023-02-01T16:13:30.239Z,147.50
2023-02-01T16:15:57.067Z,142.32
2023-02-01T16:18:24.075Z,139.07
2023-02-01T16:20:50.986Z,140.68
2023-02-01T16:23:17.992Z,145.98
2023-02-01T16:25:45.259Z,142.75
2023-02-01T16:28:12.164Z,148.35
2023-02-01T16:30:39.126Z,148.32
2023-02-01T16:33:07.709Z,148.68
2023-02-01T16:35:37.373Z,150.20
2023-02-01T16:38:09.811Z,147.27
2023-02-01T16:40:37.033Z,143.35
2023-02-01T16:43:13.019Z,142.98
2023-02-01T16:45:44.987Z,151.68
2023-02-01T16:48:17.725Z,148.88
2023-02-01T16:50:48.488Z,143.65
2023-02-01T16:53:17.562Z,142.80
2023-02-01T16:55:44.857Z,150.18
2023-02-01T16:58:11.730Z,143.43
2023-02-01T17:00:38.831Z,139.43
2023-02-01T17:03:06.349Z,141.70
2023-02-01T17:05:34.803Z,149.05
2023-02-01T17:08:07.194Z,147.68
2023-02-01T17:10:34.825Z,149.82
2023-02-01T17:13:02.931Z,136.23
2023-02-01T17:15:35.727Z,140.07
2023-02-01T17:18:03.373Z,137.55
2023-02-01T17:20:36.833Z,139.35
2023-02-01T17:23:04.860Z,142.75
2023-02-01T17:25:32.158Z,148.88
2023-02-01T17:27:59.939Z,144.93
2023-02-01T17:30:27.195Z,149.13
2023-02-01T17:32:55.410Z,143.80
2023-02-01T17:35:24.921Z,141.82
2023-02-01T17:37:53.124Z,147.63
2023-02-01T17:40:20.007Z,150.82
2023-02-01T17:42:47.423Z,145.88
2023-02-01T17:45:21.137Z,141.65
2023-02-01T17:47:48.227Z,143.88
2023-02-01T17:50:15.734Z,143.45
2023-02-01T17:52:42.654Z,133.55
2023-02-01T17:55:27.853Z,138.25
2023-02-01T17:57:54.818Z,140.45
2023-02-01T18:00:22.277Z,138.02
2023-02-01T18:02:49.391Z,142.27
2023-02-01T18:05:22.664Z,149.38
2023-02-01T18:07:50.059Z,137.45
2023-02-01T18:10:17.415Z,147.90
2023-02-01T18:12:44.811Z,138.32
2023-02-01T18:15:14.780Z,143.10
2023-02-01T18:17:41.784Z,146.07
2023-02-01T18:20:20.492Z,149.40
2023-02-01T18:22:50.797Z,139.23
2023-02-01T18:25:23.396Z,149.68
2023-02-01T18:27:52.557Z,143.25
2023-02-01T18:30:21.884Z,144.20
2023-02-01T18:32:49.386Z,148.88
2023-02-01T18:35:19.523Z,152.10
2023-02-01T18:37:49.337Z,149.60
2023-02-01T18:40:21.417Z,141.80
2023-02-01T18:42:48.734Z,147.75
2023-02-01T18:45:37.387Z,140.23
2023-02-01T18:48:05.677Z,140.75
2023-02-01T18:50:35.575Z,141.75
2023-02-01T18:53:04.680Z,146.60
2023-02-01T18:55:32.701Z,139.40
2023-02-01T18:58:01.365Z,135.60
2023-02-01T19:00:28.830Z,141.10
2023-02-01T19:02:55.965Z,144.00
2023-02-01T19:05:23.179Z,138.68
2023-02-01T19:07:53.046Z,137.50
2023-02-01T19:10:22.545Z,147.60
2023-02-01T19:12:51.429Z,140.35
2023-02-01T19:15:19.162Z,151.00
2023-02-01T19:17:49.101Z,133.18
2023-02-01T19:20:20.195Z,142.18
2023-02-01T19:22:47.723Z,142.20
2023-02-01T19:25:20.995Z,147.07
2023-02-01T19:27:48.963Z,139.50
2023-02-01T19:30:18.703Z,145.57
2023-02-01T19:32:46.041Z,147.73
2023-02-01T19:35:15.848Z,145.77
2023-02-01T19:37:43.307Z,149.93
2023-02-01T19:40:12.674Z,144.48
2023-02-01T19:42:39.677Z,142.00
2023-02-01T19:45:07.904Z,149.48
2023-02-01T19:47:35.231Z,141.00
2023-02-01T19:50:03.202Z,140.13
2023-02-01T19:52:30.052Z,148.30
2023-02-01T19:54:56.923Z,146.45
2023-02-01T19:57:23.753Z,144.45
2023-02-01T19:59:50.675Z,136.05
2023-02-01T20:02:16.761Z,151.75
2023-02-01T20:04:43.695Z,145.65
2023-02-01T20:07:11.421Z,142.25
2023-02-01T20:09:42.816Z,147.20
2023-02-01T20:12:13.481Z,145.05
2023-02-01T20:14:40.586Z,142.07
2023-02-01T20:17:08.156Z,138.70
2023-02-01T20:19:35.075Z,148.75
2023-02-01T20:22:02.112Z,135.10
2023-02-01T20:24:31.996Z,140.48
2023-02-01T20:26:59.720Z,136.02
2023-02-01T20:29:27.807Z,142.70
2023-02-01T20:31:54.693Z,143.52
2023-02-01T20:34:21.578Z,140.32
2023-02-01T20:36:48.425Z,145.52
2023-02-01T20:39:15.319Z,136.68
2023-02-01T20:41:43.690Z,136.63
2023-02-01T20:44:10.595Z,135.27
2023-02-01T20:46:37.607Z,145.77
2023-02-01T20:49:04.640Z,140.45
2023-02-01T20:51:31.488Z,141.25
2023-02-01T20:53:58.556Z,143.75
2023-02-01T20:56:25.470Z,141.07
2023-02-01T20:58:52.347Z,138.40
2023-02-01T21:01:19.360Z,143.88
2023-02-01T21:03:46.237Z,145.98
2023-02-01T21:06:13.871Z,142.73
2023-02-01T21:08:41.566Z,141.70
2023-02-01T21:11:13.566Z,141.07
2023-02-01T21:13:50.699Z,144.05
2023-02-01T21:16:21.048Z,137.13
2023-02-01T21:18:52.565Z,149.85
2023-02-01T21:21:20.099Z,150.80
2023-02-01T21:23:47.849Z,139.75
2023-02-01T21:26:23.476Z,148.40
2023-02-01T21:28:52.739Z,146.23
2023-02-01T21:31:22.484Z,142.00
2023-02-01T21:33:49.682Z,139.45
2023-02-01T21:36:19.592Z,144.73
2023-02-01T21:38:52.101Z,142.25
2023-02-01T21:41:40.621Z,144.10
2023-02-01T21:44:08.047Z,144.73
2023-02-01T21:46:34.976Z,136.75
2023-02-01T21:49:05.166Z,139.80
2023-02-01T21:51:35.320Z,149.18
2023-02-01T21:54:02.920Z,148.20
2023-02-01T21:56:29.954Z,145.77
2023-02-01T21:58:57.366Z,143.50
2023-02-01T22:01:25.165Z,149.82
2023-02-01T22:03:52.711Z,157.23
2023-02-01T22:06:28.124Z,153.10
2023-02-01T22:08:55.411Z,145.63
2023-02-01T22:11:22.888Z,145.73
2023-02-01T22:13:50.263Z,157.25
2023-02-01T22:16:18.471Z,143.02
2023-02-01T22:18:45.967Z,145.40
2023-02-01T22:21:13.145Z,145.80
2023-02-01T22:23:40.474Z,147.07
2023-02-01T22:26:09.862Z,150.25
2023-02-01T22:28:37.650Z,142.45
2023-02-01T22:31:06.990Z,139.95
2023-02-01T22:33:37.305Z,147.80
2023-02-01T22:36:05.462Z,148.30
2023-02-01T22:38:33.501Z,146.10
2023-02-01T22:41:03.686Z,147.40
2023-02-01T22:43:30.761Z,137.70
2023-02-01T22:46:02.458Z,142.38
2023-02-01T22:48:30.987Z,145.30
2023-02-01T22:50:59.331Z,142.40
2023-02-01T22:53:30.497Z,144.65
2023-02-01T22:56:05.374Z,149.40
2023-02-01T22:58:33.025Z,149.05
2023-02-01T23:01:13.972Z,136.40
2023-02-01T23:03:41.027Z,135.98
2023-02-01T23:06:09.387Z,150.88
2023-02-01T23:08:36.337Z,134.55
2023-02-01T23:11:06.414Z,148.20
2023-02-01T23:13:34.147Z,133.35
2023-02-01T23:16:06.454Z,142.95
2023-02-01T23:18:33.516Z,148.02
2023-02-01T23:21:20.484Z,136.05
2023-02-01T23:23:49.588Z,143.55
2023-02-01T23:26:17.204Z,133.23
2023-02-01T23:28:44.175Z,138.73
2023-02-01T23:31:13.474Z,140.10
2023-02-01T23:33:41.325Z,142.63
2023-02-01T23:36:11.551Z,146.27
2023-02-01T23:38:38.487Z,140.35
2023-02-01T23:41:07.198Z,149.85
2023-02-01T23:43:53.117Z,141.38
2023-02-01T23:46:20.331Z,140.20
2023-02-01T23:48:48.910Z,142.93
2023-02-01T23:51:16.257Z,141.00
2023-02-01T23:53:44.969Z,150.75
2023-02-01T23:56:25.085Z,151.30
2023-02-01T23:58:53.106Z,154.52
